Time;durP1;ratioP1;P1;durP2;ratioP2;P2;SDS_P1;SDS_P2;PMS_P1;PMS_P2;Temp;Humidity;BMP_temperature;BMP_pressure;BME280_temperature;BME280_humidity;BME280_pressure;Samples;Min_cycle;Max_cycle;Signal;HPM_P1;HPM_P2
2020/12/24 00:02:52;;;;;;;34.77;18.93;;;;;;;7.56;73.91;98367.00;250757;1132;207135;-67
2020/12/24 00:08:32;;;;;;;32.60;19.13;;;;;;;7.65;74.22;98357.66;250503;1132;115196;-67
2020/12/24 00:14:06;;;;;;;32.90;18.93;;;;;;;7.71;73.69;98341.40;251735;1112;114151;-64
2020/12/24 00:19:09;;;;;;;33.42;19.45;;;;;;;7.72;73.70;98342.25;251644;1134;114686;-65
2020/12/24 00:24:13;;;;;;;36.30;19.87;;;;;;;7.72;73.19;98347.55;251534;1135;115980;-64
2020/12/24 00:29:15;;;;;;;35.17;19.82;;;;;;;7.72;74.08;98343.09;251599;1134;115645;-65
2020/12/24 00:45:37;;;;;;;34.35;19.00;;;;;;;7.68;73.42;98320.40;251782;1135;114697;-65
2020/12/24 00:50:39;;;;;;;32.63;20.33;;;;;;;7.71;74.62;98309.62;251897;1134;115011;-65
2020/12/24 00:55:42;;;;;;;34.85;19.32;;;;;;;7.76;73.86;98304.87;251499;1133;114677;-65
2020/12/24 01:00:44;;;;;;;37.00;20.53;;;;;;;7.77;73.73;98303.91;251672;1134;115589;-65
2020/12/24 01:05:49;;;;;;;34.67;20.55;;;;;;;7.74;73.87;98301.45;251621;1134;114788;-65
2020/12/24 01:10:53;;;;;;;34.10;20.77;;;;;;;7.75;74.36;98308.47;251565;1134;115050;-65
2020/12/24 01:15:55;;;;;;;31.83;19.00;;;;;;;7.75;73.74;98299.69;251745;1134;114713;-65
2020/12/24 01:20:59;;;;;;;39.23;19.52;;;;;;;7.80;74.33;98290.48;251723;1133;114644;-64
2020/12/24 01:26:02;;;;;;;35.80;20.57;;;;;;;7.87;74.21;98287.45;251324;1134;114813;-65
2020/12/24 01:31:05;;;;;;;36.38;21.45;;;;;;;7.88;74.19;98274.12;251682;1134;115033;-65
2020/12/24 01:36:07;;;;;;;36.75;22.60;;;;;;;7.89;74.20;98267.88;251755;1134;114685;-65
2020/12/24 01:41:10;;;;;;;39.27;22.27;;;;;;;7.91;73.93;98255.36;251531;1134;114843;-65
2020/12/24 01:46:12;;;;;;;39.73;22.30;;;;;;;7.90;74.15;98258.13;251746;1134;115089;-65
2020/12/24 01:51:28;;;;;;;33.95;20.05;;;;;;;7.88;74.21;98260.88;251926;1134;114926;-68
2020/12/24 01:56:31;;;;;;;33.92;18.85;;;;;;;7.96;74.34;98257.73;251644;1134;114533;-65
2020/12/24 02:01:35;;;;;;;33.75;20.97;;;;;;;8.01;74.17;98245.88;251589;1135;114792;-66
2020/12/24 02:06:42;;;;;;;34.97;20.97;;;;;;;8.03;73.70;98246.64;251755;1135;115256;-65
2020/12/24 02:11:44;;;;;;;32.78;20.65;;;;;;;8.04;74.26;98236.88;251601;1134;115061;-65
2020/12/24 02:16:47;;;;;;;38.58;21.10;;;;;;;8.02;74.62;98228.20;251700;1135;114341;-67
2020/12/24 02:22:08;;;;;;;33.18;20.37;;;;;;;8.02;74.05;98236.16;251690;1133;114806;-65
2020/12/24 02:27:11;;;;;;;35.52;19.90;;;;;;;8.01;73.99;98232.63;251577;1135;114943;-64
2020/12/24 02:32:18;;;;;;;40.23;22.33;;;;;;;8.06;74.13;98213.80;251447;1135;114291;-64
2020/12/24 02:37:26;;;;;;;40.60;24.12;;;;;;;8.14;74.23;98215.95;251674;1133;115021;-64
2020/12/24 02:42:28;;;;;;;37.17;21.63;;;;;;;8.15;74.17;98207.91;251506;1134;114792;-63
2020/12/24 02:47:31;;;;;;;32.90;21.00;;;;;;;8.15;74.08;98213.21;251484;1135;115165;-64
2020/12/24 02:52:34;;;;;;;37.17;23.00;;;;;;;8.14;74.06;98208.84;251667;1135;114934;-64
2020/12/24 02:57:37;;;;;;;32.85;20.43;;;;;;;8.18;74.19;98198.89;251465;1134;114587;-65
2020/12/24 03:02:39;;;;;;;32.53;20.20;;;;;;;8.25;74.04;98193.10;251670;1135;114659;-64
2020/12/24 03:07:42;;;;;;;36.50;21.53;;;;;;;8.34;74.68;98198.73;251750;1133;115314;-63
2020/12/24 03:12:45;;;;;;;38.88;22.50;;;;;;;8.44;74.75;98213.11;251597;1135;114333;-63
2020/12/24 03:17:47;;;;;;;34.33;21.93;;;;;;;8.48;74.66;98214.59;251654;1135;114813;-65
2020/12/24 03:22:51;;;;;;;39.03;22.60;;;;;;;8.49;74.21;98209.20;251663;1134;114718;-64
2020/12/24 03:28:05;;;;;;;41.75;24.57;;;;;;;8.49;74.40;98213.63;251755;1134;114776;-65
2020/12/24 03:33:15;;;;;;;37.65;22.93;;;;;;;8.49;74.47;98213.63;251622;1134;114872;-65
2020/12/24 03:38:17;;;;;;;35.08;21.10;;;;;;;8.57;74.38;98211.34;251518;1135;115313;-66
2020/12/24 03:43:19;;;;;;;35.13;22.30;;;;;;;8.72;74.49;98218.25;251713;1134;115080;-64
2020/12/24 03:48:22;;;;;;;40.00;23.90;;;;;;;8.84;74.55;98199.81;251785;1133;114562;-64
2020/12/24 03:53:25;;;;;;;35.83;23.27;;;;;;;8.96;74.82;98194.49;251172;1134;114730;-65
2020/12/24 03:58:29;;;;;;;;;;;;;;;9.06;75.15;98194.71;251562;1135;114888;-65
2020/12/24 04:03:32;;;;;;;37.83;23.70;;;;;;;9.10;75.03;98211.27;251868;1135;102770;-64
2020/12/24 04:08:34;;;;;;;40.45;23.02;;;;;;;9.16;74.92;98203.73;251744;1134;114587;-63
2020/12/24 04:13:37;;;;;;;38.27;23.23;;;;;;;9.29;75.12;98201.08;251712;1134;115925;-64
2020/12/24 04:18:39;;;;;;;40.88;23.73;;;;;;;9.42;75.39;98204.56;251680;1135;114633;-64
2020/12/24 04:23:42;;;;;;;35.20;23.37;;;;;;;9.50;75.11;98196.05;251694;1134;115030;-64
2020/12/24 04:28:44;;;;;;;36.03;22.50;;;;;;;9.56;74.73;98182.33;251607;1135;115013;-64
2020/12/24 04:33:47;;;;;;;36.73;22.32;;;;;;;9.53;74.75;98174.58;251493;1135;115746;-64
2020/12/24 04:38:49;;;;;;;34.37;21.77;;;;;;;9.56;74.87;98182.33;251772;1135;115008;-64
2020/12/24 04:43:56;;;;;;;32.30;19.70;;;;;;;9.65;75.13;98171.05;251930;1134;114677;-64
2020/12/24 04:48:58;;;;;;;35.43;21.10;;;;;;;9.76;75.10;98172.09;251704;1133;114777;-64
2020/12/24 04:54:02;;;;;;;34.15;21.82;;;;;;;9.82;74.96;98172.49;251728;1135;115129;-64
2020/12/24 04:59:06;;;;;;;34.53;21.13;;;;;;;9.89;74.95;98170.23;251926;1134;115418;-64
2020/12/24 05:04:09;;;;;;;30.33;19.47;;;;;;;9.98;74.86;98166.03;251826;1134;114827;-63
2020/12/24 05:09:11;;;;;;;35.92;21.50;;;;;;;9.99;74.91;98163.28;251991;1135;115506;-64
2020/12/24 05:14:18;;;;;;;34.90;21.62;;;;;;;10.01;74.12;98164.00;251912;1135;114779;-63
2020/12/24 05:19:20;;;;;;;35.30;21.82;;;;;;;10.02;74.57;98167.50;251927;1133;114928;-64
2020/12/24 05:24:33;;;;;;;35.60;21.57;;;;;;;10.04;74.29;98169.09;251985;1133;114813;-63
2020/12/24 05:29:39;;;;;;;38.40;21.68;;;;;;;10.03;74.47;98169.22;251849;1134;114804;-63
2020/12/24 05:34:42;;;;;;;36.58;22.77;;;;;;;9.99;73.92;98162.44;251685;1132;114980;-63
2020/12/24 05:39:46;;;;;;;34.10;20.90;;;;;;;9.93;73.92;98150.44;251790;1134;114547;-63
2020/12/24 05:44:49;;;;;;;32.33;19.85;;;;;;;9.96;74.40;98150.22;251864;1135;114892;-64
2020/12/24 05:49:51;;;;;;;31.73;19.67;;;;;;;10.07;74.46;98157.39;252067;1135;114668;-64
2020/12/24 05:54:54;;;;;;;30.17;19.03;;;;;;;10.12;74.59;98171.17;251896;1134;114766;-64
2020/12/24 05:59:59;;;;;;;29.65;18.48;;;;;;;10.22;74.02;98158.05;251985;1133;114891;-63
2020/12/24 06:05:06;;;;;;;35.13;22.20;;;;;;;10.22;73.96;98152.73;251801;1134;114961;-64
2020/12/24 06:10:10;;;;;;;38.70;22.80;;;;;;;10.04;72.71;98162.94;251627;1134;115227;-64
2020/12/24 06:15:16;;;;;;;25.45;16.45;;;;;;;9.94;73.73;98152.97;251527;1135;115512;-66
2020/12/24 06:20:19;;;;;;;28.65;18.05;;;;;;;9.92;73.84;98154.91;251440;1135;114898;-65
2020/12/24 06:25:22;;;;;;;21.30;13.62;;;;;;;9.97;74.08;98170.51;251697;1135;116441;-64
2020/12/24 06:30:28;;;;;;;24.07;14.70;;;;;;;10.13;74.36;98151.63;251915;1135;114783;-64
2020/12/24 06:35:41;;;;;;;28.80;17.05;;;;;;;10.15;73.62;98145.20;251710;1134;115195;-64
2020/12/24 06:40:45;;;;;;;26.50;17.12;;;;;;;9.98;72.71;98145.62;251753;1134;115681;-65
2020/12/24 06:45:47;;;;;;;26.52;17.50;;;;;;;9.77;73.23;98149.86;251784;1134;114924;-68
2020/12/24 06:51:02;;;;;;;30.07;17.57;;;;;;;9.64;72.94;98158.71;252020;1134;114754;-66
2020/12/24 06:56:16;;;;;;;26.50;17.37;;;;;;;9.54;73.37;98159.48;251646;1135;114917;-66
2020/12/24 07:01:37;;;;;;;27.35;16.25;;;;;;;9.64;74.13;98161.37;251822;1134;114733;-65
2020/12/24 07:06:42;;;;;;;24.65;16.42;;;;;;;9.67;73.29;98165.62;251787;1134;115045;-67
2020/12/24 07:11:50;;;;;;;25.00;14.60;;;;;;;9.69;73.83;98167.21;251707;1135;114357;-66
2020/12/24 07:16:53;;;;;;;20.85;12.88;;;;;;;9.77;73.77;98173.77;251713;1134;114578;-66
2020/12/24 07:21:56;;;;;;;22.43;13.47;;;;;;;9.81;73.69;98160.14;251648;1135;115385;-67
2020/12/24 07:27:03;;;;;;;22.77;13.53;;;;;;;9.82;73.42;98151.23;251661;1133;114704;-62
2020/12/24 07:32:07;;;;;;;24.35;13.68;;;;;;;9.76;73.73;98150.83;251581;1134;114880;-69
2020/12/24 07:37:25;;;;;;;20.12;13.62;;;;;;;9.76;73.88;98156.14;251906;1133;115636;-69
2020/12/24 07:42:43;;;;;;;21.07;13.93;;;;;;;9.79;73.88;98150.61;250458;1134;114935;-70
2020/12/24 07:48:38;;;;;;;26.43;15.40;;;;;;;9.77;73.62;98161.33;251148;1133;114979;-69
2020/12/24 07:54:24;;;;;;;18.42;12.15;;;;;;;9.81;73.78;98159.30;251016;1135;114585;-71
2020/12/24 07:59:58;;;;;;;22.77;11.55;;;;;;;9.93;74.14;98151.28;251854;1133;115247;-70
2020/12/24 08:06:05;;;;;;;22.87;12.78;;;;;;;10.04;74.13;98139.01;251454;1134;115399;-69
2020/12/24 08:12:09;;;;;;;;;;;;;;;;;;;;;
2020/12/24 08:17:49;;;;;;;;;;;;;;;;;;;;;
2020/12/24 08:23:31;;;;;;;19.33;12.63;;;;;;;10.24;73.74;98156.98;250879;1134;115621;-69
2020/12/24 08:29:18;;;;;;;18.12;12.30;;;;;;;10.21;73.21;98151.05;251501;1134;115815;-67
2020/12/24 08:34:35;;;;;;;20.10;13.10;;;;;;;10.28;73.49;98146.99;251964;1134;115865;-67
2020/12/24 08:40:19;;;;;;;19.48;13.10;;;;;;;10.33;73.66;98148.36;251381;1134;115411;-67
2020/12/24 08:45:29;;;;;;;19.50;12.47;;;;;;;10.37;73.67;98138.33;251781;1134;115259;-70
2020/12/24 08:50:45;;;;;;;22.63;13.63;;;;;;;10.43;73.52;98140.53;250961;1133;115655;-70
2020/12/24 08:56:20;;;;;;;18.43;11.80;;;;;;;10.45;73.48;98137.73;247064;1138;115519;-70
2020/12/24 09:01:48;;;;;;;23.90;13.30;;;;;;;10.42;73.18;98136.16;249633;1141;115262;-70
2020/12/24 09:07:22;;;;;;;17.73;12.03;;;;;;;10.36;72.99;98140.14;250211;1137;115736;-67
2020/12/24 09:12:56;;;;;;;17.67;11.23;;;;;;;10.42;73.49;98139.66;250958;1134;115139;-66
2020/12/24 09:18:18;;;;;;;14.13;10.20;;;;;;;10.52;73.74;98138.97;251665;1134;115134;-67
2020/12/24 09:23:34;;;;;;;19.40;11.63;;;;;;;10.61;73.68;98147.09;251772;1134;115534;-66
2020/12/24 09:28:56;;;;;;;18.27;12.23;;;;;;;10.70;74.22;98152.66;251566;1134;115465;-67
2020/12/24 09:34:18;;;;;;;18.63;11.93;;;;;;;10.73;73.79;98145.30;251683;1134;115096;-66
2020/12/24 09:39:36;;;;;;;20.00;12.00;;;;;;;10.74;73.03;98146.17;251461;1134;115121;-67
2020/12/24 09:44:50;;;;;;;21.27;11.73;;;;;;;10.76;73.31;98150.38;248039;1135;116296;-70
2020/12/24 09:50:04;;;;;;;;;;;;;;;;;;;;;
2020/12/24 09:55:14;;;;;;;;;;;;;;;10.85;73.25;98146.17;251886;1134;115122;-67
2020/12/24 10:00:56;;;;;;;19.65;11.45;;;;;;;10.85;73.62;98147.02;251740;1134;102273;-67
2020/12/24 10:06:02;;;;;;;18.80;11.03;;;;;;;10.87;73.82;98144.26;251456;1134;116138;-67
2020/12/24 10:11:21;;;;;;;17.23;10.97;;;;;;;10.90;73.66;98141.33;249721;1135;116062;-67
2020/12/24 10:17:05;;;;;;;19.30;10.93;;;;;;;10.86;73.55;98140.72;251102;1134;115685;-69
2020/12/24 10:22:40;;;;;;;19.87;11.20;;;;;;;10.81;73.11;98129.59;252025;1134;205373;-67
2020/12/24 10:27:51;;;;;;;18.80;11.33;;;;;;;10.78;73.82;98126.33;251756;1134;115656;-66
2020/12/24 10:33:00;;;;;;;22.67;13.00;;;;;;;10.74;74.05;98117.73;251549;1133;115626;-67
2020/12/24 10:38:40;;;;;;;20.85;13.15;;;;;;;10.70;73.65;98120.73;251502;1134;115574;-67
2020/12/24 10:43:50;;;;;;;19.02;13.00;;;;;;;10.67;73.89;98113.02;251758;1134;115130;-67
2020/12/24 10:48:56;;;;;;;16.90;11.73;;;;;;;10.67;73.66;98113.02;250384;1133;116037;-68
2020/12/24 10:53:59;;;;;;;14.57;9.90;;;;;;;10.69;73.41;98109.25;250364;1133;115077;-67
2020/12/24 10:59:02;;;;;;;16.23;9.90;;;;;;;10.72;73.71;98105.51;251982;1135;114972;-65
2020/12/24 11:04:06;;;;;;;14.30;8.60;;;;;;;10.74;74.21;98098.27;247620;1133;115186;-67
2020/12/24 11:09:34;;;;;;;12.47;8.43;;;;;;;10.70;74.03;98095.00;251071;1134;115071;-66
2020/12/24 11:14:36;;;;;;;11.40;6.80;;;;;;;10.69;73.97;98085.30;251771;1134;115143;-67
2020/12/24 11:19:41;;;;;;;11.93;7.20;;;;;;;10.68;74.36;98088.09;251830;1134;114906;-66
2020/12/24 11:24:46;;;;;;;10.15;6.20;;;;;;;10.69;74.09;98082.64;251478;1132;114820;-66
2020/12/24 11:29:54;;;;;;;11.57;5.97;;;;;;;10.71;74.09;98063.91;251616;1134;114860;-66
2020/12/24 11:34:57;;;;;;;8.70;4.92;;;;;;;10.62;74.63;98057.48;251941;1135;115076;-67
2020/12/24 11:39:59;;;;;;;9.73;4.97;;;;;;;10.59;74.61;98055.90;251926;1134;114680;-66
2020/12/24 11:45:03;;;;;;;9.60;4.67;;;;;;;10.59;73.83;98042.59;251628;1135;114881;-65
2020/12/24 11:50:06;;;;;;;6.63;4.17;;;;;;;10.59;74.83;98044.41;252216;1134;175082;-65
2020/12/24 11:55:11;;;;;;;9.13;4.50;;;;;;;10.54;74.43;98031.48;251789;1134;115999;-67
2020/12/24 12:00:53;;;;;;;7.78;4.35;;;;;;;10.51;74.42;98023.73;251491;1134;115143;-65
2020/12/24 12:06:16;;;;;;;7.07;4.40;;;;;;;10.51;73.97;98020.23;251670;1135;114855;-66
2020/12/24 12:11:36;;;;;;;9.87;4.47;;;;;;;10.52;74.58;98017.44;251893;1134;114840;-64
2020/12/24 12:16:39;;;;;;;6.20;3.70;;;;;;;10.47;74.57;98010.81;251631;1135;114930;-63
2020/12/24 12:21:42;;;;;;;10.20;4.57;;;;;;;10.51;74.42;97999.80;251583;1134;114663;-68
2020/12/24 12:27:10;;;;;;;7.80;4.17;;;;;;;10.52;74.06;98006.80;251701;1135;117008;-68
2020/12/24 12:32:13;;;;;;;14.63;4.80;;;;;;;10.53;74.08;97997.88;251460;1133;114983;-69
2020/12/24 12:37:20;;;;;;;7.23;4.40;;;;;;;10.49;74.11;97993.73;249393;1134;115082;-69
2020/12/24 12:42:23;;;;;;;14.07;5.07;;;;;;;10.43;74.10;97996.91;252038;1133;114880;-70
2020/12/24 12:47:26;;;;;;;7.25;4.30;;;;;;;10.35;74.24;97983.34;250397;1134;116206;-70
2020/12/24 12:52:30;;;;;;;10.00;4.57;;;;;;;10.35;74.56;97988.66;248543;1134;115113;-68
2020/12/24 12:57:36;;;;;;;11.45;4.60;;;;;;;10.37;74.60;97987.58;251126;1134;115350;-68
2020/12/24 13:02:38;;;;;;;7.93;4.17;;;;;;;10.34;74.43;97986.97;249722;1135;115427;-70
2020/12/24 13:07:51;;;;;;;6.87;4.37;;;;;;;10.28;74.34;97993.61;247354;1132;115703;-72
2020/12/24 13:13:19;;;;;;;9.67;4.50;;;;;;;10.21;73.44;97994.17;249733;1134;117657;-68
2020/12/24 13:19:14;;;;;;;9.85;4.87;;;;;;;10.07;74.08;98005.88;251860;1135;114980;-69
2020/12/24 13:24:19;;;;;;;8.20;5.00;;;;;;;10.00;74.18;97989.55;251591;1135;116837;-69
2020/12/24 13:29:29;;;;;;;10.13;4.43;;;;;;;9.83;73.94;97968.73;251789;1133;114839;-69
2020/12/24 13:34:35;;;;;;;11.27;5.03;;;;;;;9.80;73.97;97975.11;251548;1133;114772;-69
2020/12/24 13:39:38;;;;;;;8.88;4.67;;;;;;;9.84;74.61;97928.73;251770;1133;114637;-69
2020/12/24 13:44:40;;;;;;;8.18;4.72;;;;;;;9.83;74.17;97942.16;251704;1134;114755;-69
2020/12/24 13:49:45;;;;;;;9.83;5.40;;;;;;;9.84;74.28;97914.61;251644;1134;114712;-68
2020/12/24 13:54:53;;;;;;;8.20;4.55;;;;;;;9.78;74.21;97925.70;251829;1133;114526;-68
2020/12/24 13:59:57;;;;;;;7.83;4.70;;;;;;;9.82;74.12;97967.89;251584;1135;114353;-67
2020/12/24 14:05:00;;;;;;;11.10;5.30;;;;;;;9.78;73.97;97955.77;251704;1134;114585;-67
2020/12/24 14:10:11;;;;;;;10.15;5.40;;;;;;;9.77;73.62;97940.80;251881;1133;115782;-70
2020/12/24 14:15:14;;;;;;;8.67;5.17;;;;;;;9.73;73.96;97923.41;251604;1134;117813;-70
2020/12/24 14:20:19;;;;;;;8.15;4.53;;;;;;;9.66;73.75;97932.81;251459;1133;115112;-69
2020/12/24 14:25:24;;;;;;;7.77;4.40;;;;;;;9.60;73.43;97935.94;251730;1134;114616;-68
2020/12/24 14:30:26;;;;;;;9.83;4.57;;;;;;;9.55;73.36;97935.45;251640;1135;114549;-68
2020/12/24 14:35:28;;;;;;;8.40;4.60;;;;;;;9.54;73.51;97939.05;251642;1134;114538;-70
2020/12/24 14:40:31;;;;;;;6.43;3.50;;;;;;;9.49;73.76;97936.75;251504;1134;115288;-67
2020/12/24 14:45:36;;;;;;;6.65;4.10;;;;;;;9.47;73.35;97943.97;251493;1134;114531;-69
2020/12/24 14:50:39;;;;;;;6.27;4.00;;;;;;;9.46;73.14;97939.62;251568;1135;114311;-68
2020/12/24 14:55:44;;;;;;;11.40;4.45;;;;;;;9.50;73.46;97941.09;251534;1134;114572;-67
2020/12/24 15:00:50;;;;;;;8.75;4.65;;;;;;;9.50;72.89;97945.55;251652;1135;114734;-67
2020/12/24 15:05:52;;;;;;;10.23;5.30;;;;;;;9.52;73.46;97936.52;251562;1133;114700;-67
2020/12/24 15:10:59;;;;;;;11.67;5.60;;;;;;;9.48;73.21;97937.72;251429;1135;114764;-67
2020/12/24 15:16:18;;;;;;;11.27;5.50;;;;;;;9.47;73.10;97920.06;251681;1134;114860;-68
2020/12/24 15:21:23;;;;;;;11.00;5.77;;;;;;;9.47;72.98;97930.69;251480;1134;114966;-68
2020/12/24 15:26:25;;;;;;;10.63;5.30;;;;;;;9.46;72.62;97945.78;251689;1134;114694;-67
2020/12/24 15:31:37;;;;;;;9.67;5.07;;;;;;;9.41;72.21;97965.70;251429;1134;115114;-67
2020/12/24 15:36:40;;;;;;;9.60;5.03;;;;;;;9.35;72.20;97958.19;251589;1134;114624;-68
2020/12/24 15:41:42;;;;;;;9.80;4.97;;;;;;;9.32;72.50;97951.28;251663;1134;114801;-67
2020/12/24 15:46:47;;;;;;;10.33;4.80;;;;;;;9.35;72.53;97931.62;251505;1133;114456;-67
2020/12/24 15:51:51;;;;;;;11.65;5.25;;;;;;;9.36;72.15;97901.45;251428;1134;114685;-67
2020/12/24 15:56:57;;;;;;;11.43;4.80;;;;;;;9.36;71.79;97899.64;251588;1135;114789;-69
2020/12/24 16:02:04;;;;;;;11.53;5.87;;;;;;;9.32;71.74;97915.92;251233;1134;114792;-70
2020/12/24 16:07:06;;;;;;;9.45;4.05;;;;;;;9.29;71.74;97921.46;251823;1136;114890;-67
2020/12/24 16:12:09;;;;;;;10.00;4.47;;;;;;;9.30;70.94;97907.22;251560;1133;114495;-67
2020/12/24 16:17:12;;;;;;;10.00;4.67;;;;;;;9.31;70.93;97904.47;251582;1134;115006;-70
2020/12/24 16:22:14;;;;;;;9.80;4.43;;;;;;;9.31;71.09;97903.63;251586;1134;114803;-70
2020/12/24 16:27:17;;;;;;;11.07;5.03;;;;;;;9.40;71.20;97916.19;246995;1133;114997;-69
2020/12/24 16:32:19;;;;;;;9.37;4.37;;;;;;;9.44;71.08;97920.30;248559;1133;115058;-66
2020/12/24 16:37:25;;;;;;;10.00;4.13;;;;;;;9.35;70.15;97923.67;250592;1135;114775;-68
2020/12/24 16:42:28;;;;;;;11.45;4.65;;;;;;;9.29;70.38;97929.43;252067;1134;114425;-68
2020/12/24 16:47:31;;;;;;;11.97;4.60;;;;;;;9.21;70.52;97920.23;249982;1134;114879;-69
2020/12/24 16:52:33;;;;;;;9.53;4.17;;;;;;;9.18;69.89;97930.23;250332;1133;115312;-71
2020/12/24 16:57:36;;;;;;;11.27;4.40;;;;;;;9.18;69.91;97925.77;247194;1135;115153;-67
2020/12/24 17:02:38;;;;;;;8.43;4.33;;;;;;;9.14;69.83;97911.03;251485;1135;114854;-67
2020/12/24 17:07:41;;;;;;;9.53;4.20;;;;;;;9.10;69.75;97919.31;250962;1134;114782;-67
2020/12/24 17:12:43;;;;;;;11.50;4.30;;;;;;;9.07;69.99;97919.54;251549;1133;115000;-67
2020/12/24 17:17:45;;;;;;;11.00;4.70;;;;;;;9.07;69.92;97907.14;251281;1132;114881;-66
2020/12/24 17:22:48;;;;;;;11.77;5.00;;;;;;;9.10;69.64;97896.27;249880;1134;115098;-69
2020/12/24 17:27:50;;;;;;;11.03;4.30;;;;;;;9.05;69.00;97892.29;251828;1134;115580;-69
2020/12/24 17:32:53;;;;;;;9.37;4.50;;;;;;;8.99;69.29;97906.84;250311;1134;115060;-68
2020/12/24 17:37:55;;;;;;;9.23;4.73;;;;;;;8.96;69.58;97904.42;251599;1134;114643;-68
2020/12/24 17:42:57;;;;;;;10.53;4.63;;;;;;;8.91;68.71;97909.23;248057;1134;114973;-70
2020/12/24 17:47:59;;;;;;;11.00;4.80;;;;;;;8.81;69.32;97914.36;251730;1132;114990;-68
2020/12/24 17:53:02;;;;;;;14.83;5.63;;;;;;;8.72;69.37;97918.52;250020;1133;114914;-68
2020/12/24 17:58:04;;;;;;;13.25;5.65;;;;;;;8.70;69.14;97917.80;251905;1132;114994;-68
2020/12/24 18:03:07;;;;;;;11.43;6.50;;;;;;;8.70;68.94;97904.53;249987;1134;115414;-68
2020/12/24 18:08:10;;;;;;;12.55;5.83;;;;;;;8.71;69.29;97908.03;251678;1134;115028;-68
2020/12/24 18:13:12;;;;;;;12.07;5.67;;;;;;;8.68;69.19;97911.74;250378;1134;116186;-69
2020/12/24 18:18:14;;;;;;;10.70;4.90;;;;;;;8.67;69.07;97920.66;247090;1135;115240;-68
2020/12/24 18:23:17;;;;;;;10.00;5.10;;;;;;;8.69;69.12;97909.94;251803;1133;114778;-67
2020/12/24 18:28:19;;;;;;;10.93;4.80;;;;;;;8.66;68.86;97918.11;250143;1135;114860;-70
2020/12/24 18:33:22;;;;;;;8.30;4.47;;;;;;;8.66;68.97;97918.11;250553;1134;115676;-70
2020/12/24 18:38:24;;;;;;;10.60;5.07;;;;;;;8.67;69.51;97918.02;251566;1133;116506;-68
2020/12/24 18:43:26;;;;;;;10.20;5.20;;;;;;;8.71;69.14;97913.33;248575;1133;114896;-69
2020/12/24 18:48:32;;;;;;;9.85;4.83;;;;;;;8.70;68.92;97903.69;251284;1132;114655;-70
2020/12/24 18:53:35;;;;;;;9.80;5.03;;;;;;;8.69;69.05;97901.97;250895;1134;114995;-67
2020/12/24 18:58:41;;;;;;;11.87;5.17;;;;;;;8.64;68.88;97907.63;251697;1135;114535;-68
2020/12/24 19:03:44;;;;;;;10.83;5.30;;;;;;;8.59;69.06;97909.75;251789;1132;115491;-67
2020/12/24 19:08:47;;;;;;;11.57;5.83;;;;;;;8.53;68.71;97910.22;247291;1134;115265;-68
2020/12/24 19:13:50;;;;;;;15.17;6.50;;;;;;;8.48;68.76;97901.72;250171;1135;115310;-68
2020/12/24 19:18:53;;;;;;;16.03;7.20;;;;;;;8.46;68.66;97907.16;247211;1135;115236;-68
2020/12/24 19:23:55;;;;;;;13.10;7.43;;;;;;;8.45;68.93;97894.83;251647;1134;114723;-68
2020/12/24 19:28:58;;;;;;;14.10;6.97;;;;;;;8.46;68.42;97898.36;251460;1134;115036;-68
2020/12/24 19:34:00;;;;;;;14.70;7.23;;;;;;;8.43;68.79;97898.58;250140;1135;114631;-71
2020/12/24 19:39:05;;;;;;;15.97;8.03;;;;;;;8.39;68.65;97903.25;249713;1132;115265;-69
2020/12/24 19:44:10;;;;;;;17.57;8.60;;;;;;;8.36;68.78;97894.64;249913;1132;115021;-69
2020/12/24 19:49:12;;;;;;;15.63;8.47;;;;;;;8.30;68.54;97904.70;248968;1132;115303;-69
2020/12/24 19:54:18;;;;;;;18.33;8.03;;;;;;;8.22;69.16;97906.19;251457;1134;115218;-69
2020/12/24 19:59:21;;;;;;;18.63;8.73;;;;;;;8.15;68.29;97916.41;251586;1132;115085;-70
2020/12/24 20:04:24;;;;;;;16.65;8.65;;;;;;;8.23;69.16;97910.56;250300;1133;115193;-70
2020/12/24 20:09:26;;;;;;;14.73;8.67;;;;;;;8.21;68.70;97909.80;251680;1133;114921;-68
2020/12/24 20:14:29;;;;;;;14.93;8.67;;;;;;;8.10;68.70;97915.86;250377;1132;115236;-69
2020/12/24 20:19:31;;;;;;;16.00;8.57;;;;;;;8.08;68.72;97919.56;251862;1132;115056;-69
2020/12/24 20:24:34;;;;;;;14.87;7.87;;;;;;;7.98;68.46;97906.98;251482;1134;115687;-70
2020/12/24 20:29:38;;;;;;;15.85;8.35;;;;;;;7.96;68.60;97902.73;251727;1134;115458;-70
2020/12/24 20:34:41;;;;;;;16.02;8.10;;;;;;;7.92;68.68;97914.51;251505;1132;114826;-70
2020/12/24 20:39:46;;;;;;;16.90;8.48;;;;;;;7.93;69.16;97910.89;251508;1134;116514;-70
2020/12/24 20:44:49;;;;;;;14.70;8.10;;;;;;;8.03;68.69;97917.25;251807;1132;115116;-71
2020/12/24 20:49:52;;;;;;;16.20;8.07;;;;;;;8.08;69.09;97917.77;251645;1132;115607;-70
2020/12/24 20:54:54;;;;;;;16.67;7.83;;;;;;;8.07;68.80;97931.97;251513;1132;114673;-70
2020/12/24 20:59:59;;;;;;;12.90;7.50;;;;;;;8.08;68.77;97930.17;251674;1133;114759;-70
2020/12/24 21:05:01;;;;;;;17.50;7.72;;;;;;;8.04;68.87;97930.38;251508;1134;114552;-70
2020/12/24 21:10:04;;;;;;;13.13;6.97;;;;;;;8.04;69.03;97929.53;251936;1132;114555;-70
2020/12/24 21:15:07;;;;;;;13.90;7.37;;;;;;;8.08;68.52;97936.31;251636;1135;114897;-70
2020/12/24 21:20:09;;;;;;;13.97;6.83;;;;;;;8.11;68.71;97924.66;251679;1132;114669;-70
2020/12/24 21:25:15;;;;;;;11.90;6.83;;;;;;;8.15;68.40;97932.30;251625;1134;114666;-70
2020/12/24 21:30:17;;;;;;;;;;;;;;;8.27;69.45;97927.93;251738;1135;114664;-69
2020/12/24 21:35:20;;;;;;;10.50;5.63;;;;;;;8.31;69.16;97921.45;251721;1133;103148;-69
2020/12/24 21:40:22;;;;;;;11.90;5.33;;;;;;;8.35;69.12;97932.69;251760;1134;115551;-68
2020/12/24 21:45:26;;;;;;;12.53;5.55;;;;;;;8.39;68.82;97921.80;251631;1133;115245;-67
2020/12/24 21:50:28;;;;;;;11.73;5.73;;;;;;;8.40;68.90;97925.30;251801;1133;114771;-70
2020/12/24 21:55:31;;;;;;;12.27;4.70;;;;;;;8.39;68.93;97918.28;251540;1134;115639;-69
2020/12/24 22:00:40;;;;;;;9.83;4.60;;;;;;;8.39;68.69;97923.58;250182;1134;114934;-69
2020/12/24 22:05:43;;;;;;;8.37;4.60;;;;;;;8.44;69.07;97926.77;251862;1134;114612;-69
2020/12/24 22:10:46;;;;;;;10.45;4.55;;;;;;;8.54;69.21;97922.50;251923;1134;114948;-69
2020/12/24 22:15:48;;;;;;;10.20;4.03;;;;;;;8.62;68.94;97912.17;251931;1132;114942;-70
2020/12/24 22:20:51;;;;;;;7.80;3.70;;;;;;;8.65;68.80;97921.73;251869;1135;114769;-69
2020/12/24 22:25:53;;;;;;;6.53;3.67;;;;;;;8.63;68.80;97921.02;250974;1133;114496;-69
2020/12/24 22:30:56;;;;;;;8.00;4.13;;;;;;;8.57;68.66;97918.80;248915;1133;114713;-69
2020/12/24 22:35:58;;;;;;;8.10;4.63;;;;;;;8.54;68.75;97911.89;249417;1134;114597;-68
2020/12/24 22:41:01;;;;;;;7.47;3.57;;;;;;;8.51;68.79;97910.30;251581;1135;115697;-71
2020/12/24 22:46:03;;;;;;;7.75;3.80;;;;;;;8.51;68.71;97915.61;251587;1134;114635;-69
2020/12/24 22:51:06;;;;;;;7.73;4.10;;;;;;;8.58;68.72;97908.06;251798;1135;114677;-68
2020/12/24 22:56:08;;;;;;;6.80;3.50;;;;;;;8.60;68.84;97913.27;251820;1133;114691;-69
2020/12/24 23:01:11;;;;;;;9.45;4.45;;;;;;;8.66;68.75;97921.63;251659;1135;114570;-69
2020/12/24 23:06:13;;;;;;;8.70;3.83;;;;;;;8.59;68.83;97933.61;251646;1134;114665;-68
2020/12/24 23:11:16;;;;;;;5.80;3.50;;;;;;;8.55;68.67;97956.01;251990;1134;114570;-68
2020/12/24 23:16:18;;;;;;;5.50;3.10;;;;;;;8.34;68.12;97979.55;251483;1135;114218;-66
2020/12/24 23:21:21;;;;;;;5.73;2.73;;;;;;;8.16;68.49;97970.25;251522;1135;115159;-66
2020/12/24 23:26:23;;;;;;;3.90;2.20;;;;;;;8.01;68.40;97985.38;251685;1134;114672;-66
2020/12/24 23:31:26;;;;;;;4.17;2.00;;;;;;;7.82;68.20;97986.65;251877;1134;114653;-66
2020/12/24 23:36:28;;;;;;;4.67;2.57;;;;;;;7.69;68.14;97996.37;251897;1135;114920;-65
2020/12/24 23:41:30;;;;;;;5.27;2.90;;;;;;;7.53;68.37;98008.92;251969;1135;115221;-66
2020/12/24 23:46:32;;;;;;;4.43;2.47;;;;;;;7.42;68.54;98033.46;252000;1135;114620;-66
2020/12/24 23:51:35;;;;;;;5.97;3.30;;;;;;;7.30;68.16;98043.06;251552;1134;114265;-65